Terminal Aerodrome Forecast
Issued by NWS

Home | Current Version | Previous Version | Text Only | Print | Product List | Glossary Off
Versions: 1 2 3 4 5 6 7 8 9 10 11 12 13 14 15 16 17 18 19 20 21 22 23 24 25 26 27 28 29 30 31

000
FTUS43 KABR 050049 AAA
TAFATY
TAF AMD
KATY 050049Z 0501/0524 VRB06KT P6SM SKC
     FM050600 17006KT P6SM OVC120
     FM051400 17007KT P6SM SCT040 OVC060
     FM051600 21010KT 5SM -SN OVC015
     FM052000 32009KT P6SM FEW020 BKN050 OVC100=

USA.gov is the U.S. government's official web portal to all federal, state and local government web resources and services.